sensor_id;sensor_type;location;lat;lon;timestamp;pressure;altitude;pressure_sealevel;temperature;humidity
44079;BME280;29744;49.078;12.878;2022-11-03T00:00:57;97047.88;;;15.73;45.12
44079;BME280;29744;49.078;12.878;2022-11-03T00:05:59;97041.66;;;15.73;45.04
44079;BME280;29744;49.078;12.878;2022-11-03T00:11:11;97032.75;;;15.72;44.44
44079;BME280;29744;49.078;12.878;2022-11-03T00:16:11;97030.84;;;15.73;44.90
44079;BME280;29744;49.078;12.878;2022-11-03T00:21:12;97013.50;;;15.74;44.54
44079;BME280;29744;49.078;12.878;2022-11-03T00:31:16;97003.50;;;15.74;44.82
44079;BME280;29744;49.078;12.878;2022-11-03T00:36:20;97000.00;;;15.74;44.80
44079;BME280;29744;49.078;12.878;2022-11-03T00:41:21;96993.00;;;15.73;45.01
44079;BME280;29744;49.078;12.878;2022-11-03T00:46:24;96986.47;;;15.74;44.91
44079;BME280;29744;49.078;12.878;2022-11-03T00:51:26;96982.19;;;15.73;44.94
44079;BME280;29744;49.078;12.878;2022-11-03T00:56:37;96986.78;;;15.72;44.80
44079;BME280;29744;49.078;12.878;2022-11-03T01:01:42;96972.00;;;15.70;44.59
44079;BME280;29744;49.078;12.878;2022-11-03T01:06:45;96975.81;;;15.69;44.46
44079;BME280;29744;49.078;12.878;2022-11-03T01:12:08;96974.53;;;15.66;44.69
44079;BME280;29744;49.078;12.878;2022-11-03T01:17:18;96959.91;;;15.67;44.91
44079;BME280;29744;49.078;12.878;2022-11-03T01:22:19;96959.13;;;15.67;44.47
44079;BME280;29744;49.078;12.878;2022-11-03T01:27:20;96952.59;;;15.68;44.63
44079;BME280;29744;49.078;12.878;2022-11-03T01:32:23;96951.78;;;15.67;44.73
44079;BME280;29744;49.078;12.878;2022-11-03T01:37:24;96947.19;;;15.68;44.70
44079;BME280;29744;49.078;12.878;2022-11-03T01:42:25;96953.72;;;15.67;44.96
44079;BME280;29744;49.078;12.878;2022-11-03T01:47:31;96935.09;;;15.65;44.55
44079;BME280;29744;49.078;12.878;2022-11-03T01:53:04;96927.63;;;15.62;44.78
44079;BME280;29744;49.078;12.878;2022-11-03T01:58:10;96920.00;;;15.64;44.49
44079;BME280;29744;49.078;12.878;2022-11-03T02:03:13;96911.88;;;15.64;44.88
44079;BME280;29744;49.078;12.878;2022-11-03T02:08:28;96906.47;;;15.64;44.72
44079;BME280;29744;49.078;12.878;2022-11-03T02:13:31;96897.56;;;15.64;44.56
44079;BME280;29744;49.078;12.878;2022-11-03T02:18:33;96885.63;;;15.65;44.56
44079;BME280;29744;49.078;12.878;2022-11-03T02:23:39;96876.72;;;15.64;44.71
44079;BME280;29744;49.078;12.878;2022-11-03T02:28:42;96879.44;;;15.64;44.57
44079;BME280;29744;49.078;12.878;2022-11-03T02:33:53;96883.25;;;15.63;44.50
44079;BME280;29744;49.078;12.878;2022-11-03T02:39:13;96872.75;;;15.62;44.52
44079;BME280;29744;49.078;12.878;2022-11-03T02:44:16;96869.72;;;15.63;44.41
44079;BME280;29744;49.078;12.878;2022-11-03T02:49:17;96860.81;;;15.63;44.32
44079;BME280;29744;49.078;12.878;2022-11-03T02:54:24;96855.41;;;15.63;45.03
44079;BME280;29744;49.078;12.878;2022-11-03T02:59:27;96851.59;;;15.64;44.56
44079;BME280;29744;49.078;12.878;2022-11-03T03:04:41;96847.31;;;15.63;44.62
44079;BME280;29744;49.078;12.878;2022-11-03T03:09:47;96837.28;;;15.63;44.79
44079;BME280;29744;49.078;12.878;2022-11-03T03:14:51;96825.69;;;15.63;44.66
44079;BME280;29744;49.078;12.878;2022-11-03T03:20:02;96833.31;;;15.61;44.78
44079;BME280;29744;49.078;12.878;2022-11-03T03:30:47;96826.00;;;15.61;44.54
44079;BME280;29744;49.078;12.878;2022-11-03T03:35:49;96817.56;;;15.63;44.82
44079;BME280;29744;49.078;12.878;2022-11-03T03:40:52;96804.06;;;15.63;44.83
44079;BME280;29744;49.078;12.878;2022-11-03T03:45:56;96814.88;;;15.63;44.73
44079;BME280;29744;49.078;12.878;2022-11-03T03:50:58;96802.16;;;15.63;44.72
44079;BME280;29744;49.078;12.878;2022-11-03T03:55:59;96799.75;;;15.62;44.93
44079;BME280;29744;49.078;12.878;2022-11-03T04:01:00;96801.66;;;15.61;44.40
44079;BME280;29744;49.078;12.878;2022-11-03T04:06:00;96784.66;;;15.61;44.67
44079;BME280;29744;49.078;12.878;2022-11-03T04:11:01;96793.41;;;15.58;44.39
44079;BME280;29744;49.078;12.878;2022-11-03T04:16:20;96791.81;;;15.57;44.52
44079;BME280;29744;49.078;12.878;2022-11-03T04:21:39;96791.03;;;15.56;44.59
44079;BME280;29744;49.078;12.878;2022-11-03T04:27:01;96779.44;;;15.56;44.35
44079;BME280;29744;49.078;12.878;2022-11-03T04:32:13;96779.44;;;15.56;44.87
44079;BME280;29744;49.078;12.878;2022-11-03T04:37:15;96773.22;;;15.55;44.35
44079;BME280;29744;49.078;12.878;2022-11-03T04:42:18;96776.72;;;15.56;44.96
44079;BME280;29744;49.078;12.878;2022-11-03T04:47:18;96761.63;;;15.55;44.36
44079;BME280;29744;49.078;12.878;2022-11-03T04:52:20;96751.59;;;15.55;44.82
44079;BME280;29744;49.078;12.878;2022-11-03T04:57:20;96756.22;;;15.55;44.90
44079;BME280;29744;49.078;12.878;2022-11-03T05:02:21;96743.03;;;15.53;44.61
44079;BME280;29744;49.078;12.878;2022-11-03T05:12:23;96728.72;;;15.53;44.55
44079;BME280;29744;49.078;12.878;2022-11-03T05:17:26;96711.69;;;15.52;44.66
44079;BME280;29744;49.078;12.878;2022-11-03T05:22:32;96703.91;;;15.51;44.53
44079;BME280;29744;49.078;12.878;2022-11-03T05:27:34;96707.72;;;15.50;44.51
44079;BME280;29744;49.078;12.878;2022-11-03T05:32:34;96702.78;;;15.52;44.36
44079;BME280;29744;49.078;12.878;2022-11-03T05:37:34;96693.09;;;15.51;44.85
44079;BME280;29744;49.078;12.878;2022-11-03T05:42:45;96703.91;;;15.51;44.59
44079;BME280;29744;49.078;12.878;2022-11-03T05:47:46;96705.50;;;15.52;44.82
44079;BME280;29744;49.078;12.878;2022-11-03T05:52:49;96695.81;;;15.51;44.59
44079;BME280;29744;49.078;12.878;2022-11-03T05:57:50;96686.91;;;15.50;44.52
44079;BME280;29744;49.078;12.878;2022-11-03T06:02:51;96694.22;;;15.50;44.40
44079;BME280;29744;49.078;12.878;2022-11-03T06:07:53;96685.31;;;15.49;44.50
44079;BME280;29744;49.078;12.878;2022-11-03T06:12:57;96681.81;;;15.49;44.38
44079;BME280;29744;49.078;12.878;2022-11-03T06:18:01;96681.34;;;15.46;44.26
44079;BME280;29744;49.078;12.878;2022-11-03T06:23:11;96680.22;;;15.48;44.64
44079;BME280;29744;49.078;12.878;2022-11-03T06:28:18;96681.34;;;15.46;44.26
44079;BME280;29744;49.078;12.878;2022-11-03T06:33:27;96674.34;;;15.45;44.58
44079;BME280;29744;49.078;12.878;2022-11-03T06:38:30;96662.75;;;15.45;44.41
44079;BME280;29744;49.078;12.878;2022-11-03T06:43:39;96652.25;;;15.43;44.58
44079;BME280;29744;49.078;12.878;2022-11-03T06:48:40;96658.00;;;15.42;44.30
44079;BME280;29744;49.078;12.878;2022-11-03T06:53:40;96660.69;;;15.42;44.33
44079;BME280;29744;49.078;12.878;2022-11-03T06:58:41;96658.78;;;15.42;44.67
44079;BME280;29744;49.078;12.878;2022-11-03T07:03:42;96656.09;;;15.42;44.51
44079;BME280;29744;49.078;12.878;2022-11-03T07:08:44;96658.78;;;15.42;44.63
44079;BME280;29744;49.078;12.878;2022-11-03T07:13:47;96659.91;;;15.41;44.23
44079;BME280;29744;49.078;12.878;2022-11-03T07:18:49;96649.88;;;15.42;44.85
44079;BME280;29744;49.078;12.878;2022-11-03T07:23:49;96635.59;;;15.41;44.41
44079;BME280;29744;49.078;12.878;2022-11-03T07:28:50;96631.75;;;15.42;44.53
44079;BME280;29744;49.078;12.878;2022-11-03T07:33:55;96631.75;;;15.42;44.76
44079;BME280;29744;49.078;12.878;2022-11-03T07:38:58;96619.38;;;15.41;44.44
44079;BME280;29744;49.078;12.878;2022-11-03T07:44:00;96610.47;;;15.41;44.78
44079;BME280;29744;49.078;12.878;2022-11-03T07:49:01;96603.47;;;15.40;44.76
44079;BME280;29744;49.078;12.878;2022-11-03T07:54:12;96593.47;;;15.40;44.69
44079;BME280;29744;49.078;12.878;2022-11-03T07:59:15;96585.34;;;15.40;44.61
44079;BME280;29744;49.078;12.878;2022-11-03T08:04:21;96567.56;;;15.39;44.33
44079;BME280;29744;49.078;12.878;2022-11-03T08:09:22;96560.25;;;15.40;44.79
44079;BME280;29744;49.078;12.878;2022-11-03T08:14:22;96562.94;;;15.40;44.49
44079;BME280;29744;49.078;12.878;2022-11-03T08:19:22;96549.44;;;15.40;44.44
44079;BME280;29744;49.078;12.878;2022-11-03T08:24:23;96539.41;;;15.40;44.65
44079;BME280;29744;49.078;12.878;2022-11-03T08:29:23;96540.19;;;15.41;44.85
44079;BME280;29744;49.078;12.878;2022-11-03T08:34:26;96528.28;;;15.42;44.31
44079;BME280;29744;49.078;12.878;2022-11-03T08:39:26;96526.69;;;15.41;44.59
44079;BME280;29744;49.078;12.878;2022-11-03T08:44:27;96507.44;;;15.42;44.83
44079;BME280;29744;49.078;12.878;2022-11-03T08:49:27;96485.81;;;15.42;44.82
44079;BME280;29744;49.078;12.878;2022-11-03T08:54:27;96479.63;;;15.42;44.54
44079;BME280;29744;49.078;12.878;2022-11-03T08:59:28;96475.81;;;15.43;44.69
44079;BME280;29744;49.078;12.878;2022-11-03T09:04:28;96462.28;;;15.43;45.02
44079;BME280;29744;49.078;12.878;2022-11-03T09:09:28;96458.81;;;15.42;44.42
44079;BME280;29744;49.078;12.878;2022-11-03T09:14:29;96452.28;;;15.43;44.68
44079;BME280;29744;49.078;12.878;2022-11-03T09:19:29;96438.78;;;15.43;44.63
44079;BME280;29744;49.078;12.878;2022-11-03T09:24:29;96421.75;;;15.43;44.73
44079;BME280;29744;49.078;12.878;2022-11-03T09:29:30;96419.06;;;15.43;44.49
44079;BME280;29744;49.078;12.878;2022-11-03T09:34:31;96412.88;;;15.42;44.43
44079;BME280;29744;49.078;12.878;2022-11-03T09:39:31;96386.63;;;15.43;44.22
44079;BME280;29744;49.078;12.878;2022-11-03T09:44:33;96385.50;;;15.44;44.56
44079;BME280;29744;49.078;12.878;2022-11-03T09:49:35;96378.19;;;15.44;44.25
44079;BME280;29744;49.078;12.878;2022-11-03T09:54:35;96377.72;;;15.42;44.42
44079;BME280;29744;49.078;12.878;2022-11-03T09:59:36;96365.81;;;15.43;44.89
44079;BME280;29744;49.078;12.878;2022-11-03T10:04:37;96353.88;;;15.44;44.50
44079;BME280;29744;49.078;12.878;2022-11-03T10:09:42;96348.81;;;15.43;44.73
44079;BME280;29744;49.078;12.878;2022-11-03T10:14:44;96330.66;;;15.43;44.26
44079;BME280;29744;49.078;12.878;2022-11-03T10:19:48;96317.16;;;15.43;44.64
44079;BME280;29744;49.078;12.878;2022-11-03T10:30:29;96303.19;;;15.41;44.55
44079;BME280;29744;49.078;12.878;2022-11-03T10:35:33;96295.09;;;15.41;44.76
44079;BME280;29744;49.078;12.878;2022-11-03T10:40:35;96279.66;;;15.42;44.30
44079;BME280;29744;49.078;12.878;2022-11-03T10:45:35;96269.97;;;15.41;44.57
44079;BME280;29744;49.078;12.878;2022-11-03T10:50:39;96260.75;;;15.42;44.83
44079;BME280;29744;49.078;12.878;2022-11-03T10:55:39;96251.06;;;15.41;44.88
44079;BME280;29744;49.078;12.878;2022-11-03T11:00:40;96244.19;;;15.43;44.35
44079;BME280;29744;49.078;12.878;2022-11-03T11:05:45;96225.28;;;15.43;44.21
44079;BME280;29744;49.078;12.878;2022-11-03T11:10:46;96215.59;;;15.42;44.24
44079;BME280;29744;49.078;12.878;2022-11-03T11:26:37;96210.97;;;15.43;44.85
44079;BME280;29744;49.078;12.878;2022-11-03T11:31:47;96199.38;;;15.42;44.50
44079;BME280;29744;49.078;12.878;2022-11-03T11:42:13;96198.13;;;15.40;44.37
44079;BME280;29744;49.078;12.878;2022-11-03T11:52:26;96187.00;;;15.41;44.62
44079;BME280;29744;49.078;12.878;2022-11-03T11:57:29;96183.16;;;15.42;44.78
44079;BME280;29744;49.078;12.878;2022-11-03T12:02:31;96182.38;;;15.42;44.65
44079;BME280;29744;49.078;12.878;2022-11-03T12:07:35;96174.28;;;15.42;44.58
44079;BME280;29744;49.078;12.878;2022-11-03T12:12:36;96165.38;;;15.41;44.33
44079;BME280;29744;49.078;12.878;2022-11-03T12:17:36;96159.97;;;15.41;44.72
44079;BME280;29744;49.078;12.878;2022-11-03T12:32:37;96123.72;;;15.42;44.89
44079;BME280;29744;49.078;12.878;2022-11-03T12:37:37;96119.91;;;15.43;44.44
44079;BME280;29744;49.078;12.878;2022-11-03T12:42:38;96119.91;;;15.43;44.26
44079;BME280;29744;49.078;12.878;2022-11-03T12:47:38;96113.69;;;15.43;44.51
44079;BME280;29744;49.078;12.878;2022-11-03T12:52:39;96112.91;;;15.42;44.50
44079;BME280;29744;49.078;12.878;2022-11-03T12:57:39;96109.09;;;15.43;44.79
44079;BME280;29744;49.078;12.878;2022-11-03T13:02:39;96109.09;;;15.43;44.64
44079;BME280;29744;49.078;12.878;2022-11-03T13:07:41;96089.03;;;15.44;44.57
44079;BME280;29744;49.078;12.878;2022-11-03T13:12:42;96090.97;;;15.44;44.34
44079;BME280;29744;49.078;12.878;2022-11-03T13:17:44;96090.16;;;15.43;44.70
44079;BME280;29744;49.078;12.878;2022-11-03T13:22:44;96085.56;;;15.44;44.55
44079;BME280;29744;49.078;12.878;2022-11-03T13:27:44;96079.03;;;15.45;44.67
44079;BME280;29744;49.078;12.878;2022-11-03T13:32:45;96076.31;;;15.45;44.73
44079;BME280;29744;49.078;12.878;2022-11-03T13:37:45;96069.00;;;15.45;44.32
44079;BME280;29744;49.078;12.878;2022-11-03T13:42:46;96064.38;;;15.46;44.73
44079;BME280;29744;49.078;12.878;2022-11-03T13:47:46;96054.69;;;15.45;44.29
44079;BME280;29744;49.078;12.878;2022-11-03T13:52:46;96041.97;;;15.45;44.31
44079;BME280;29744;49.078;12.878;2022-11-03T13:57:47;96035.00;;;15.44;44.55
44079;BME280;29744;49.078;12.878;2022-11-03T14:02:47;96032.28;;;15.44;44.84
44079;BME280;29744;49.078;12.878;2022-11-03T14:07:50;96033.09;;;15.45;44.53
44079;BME280;29744;49.078;12.878;2022-11-03T14:12:50;96018.78;;;15.44;44.80
44079;BME280;29744;49.078;12.878;2022-11-03T14:17:50;96002.22;;;15.46;44.35
44079;BME280;29744;49.078;12.878;2022-11-03T14:22:50;95992.53;;;15.45;44.34
44079;BME280;29744;49.078;12.878;2022-11-03T14:27:53;95989.06;;;15.44;44.69
44079;BME280;29744;49.078;12.878;2022-11-03T14:32:54;95982.09;;;15.43;44.51
44079;BME280;29744;49.078;12.878;2022-11-03T14:37:54;95975.56;;;15.44;44.82
44079;BME280;29744;49.078;12.878;2022-11-03T14:42:54;95963.16;;;15.43;44.75
44079;BME280;29744;49.078;12.878;2022-11-03T14:47:54;95952.34;;;15.43;44.49
44079;BME280;29744;49.078;12.878;2022-11-03T14:52:55;95946.94;;;15.43;44.37
44079;BME280;29744;49.078;12.878;2022-11-03T14:57:55;95940.41;;;15.44;44.61
44079;BME280;29744;49.078;12.878;2022-11-03T15:02:55;95923.41;;;15.44;44.73
44079;BME280;29744;49.078;12.878;2022-11-03T15:07:56;95925.34;;;15.43;44.89
44079;BME280;29744;49.078;12.878;2022-11-03T15:12:56;95929.94;;;15.43;44.51
44079;BME280;29744;49.078;12.878;2022-11-03T15:17:57;95936.16;;;15.43;44.87
44079;BME280;29744;49.078;12.878;2022-11-03T15:22:57;95929.94;;;15.43;44.74
44079;BME280;29744;49.078;12.878;2022-11-03T15:27:57;95915.66;;;15.42;44.60
44079;BME280;29744;49.078;12.878;2022-11-03T15:32:58;95913.41;;;15.44;44.39
44079;BME280;29744;49.078;12.878;2022-11-03T15:37:58;95921.50;;;15.44;44.46
44079;BME280;29744;49.078;12.878;2022-11-03T15:42:58;95897.19;;;15.44;44.69
44079;BME280;29744;49.078;12.878;2022-11-03T15:47:59;95900.69;;;15.45;44.39
44079;BME280;29744;49.078;12.878;2022-11-03T15:52:59;95880.63;;;15.46;44.68
44079;BME280;29744;49.078;12.878;2022-11-03T15:58:00;95869.03;;;15.45;44.65
44079;BME280;29744;49.078;12.878;2022-11-03T16:03:00;95865.53;;;15.45;44.55
44079;BME280;29744;49.078;12.878;2022-11-03T16:08:00;95863.63;;;15.45;44.45
44079;BME280;29744;49.078;12.878;2022-11-03T16:13:01;95856.66;;;15.44;44.61
44079;BME280;29744;49.078;12.878;2022-11-03T16:18:01;95851.25;;;15.44;44.29
44079;BME280;29744;49.078;12.878;2022-11-03T16:23:01;95851.25;;;15.44;44.94
44079;BME280;29744;49.078;12.878;2022-11-03T16:28:02;95854.75;;;15.45;44.82
44079;BME280;29744;49.078;12.878;2022-11-03T16:33:03;95844.28;;;15.43;44.62
44079;BME280;29744;49.078;12.878;2022-11-03T16:38:03;95819.16;;;15.43;44.94
44079;BME280;29744;49.078;12.878;2022-11-03T16:43:05;95799.03;;;15.40;44.46
44079;BME280;29744;49.078;12.878;2022-11-03T16:48:05;95791.38;;;15.42;44.77
44079;BME280;29744;49.078;12.878;2022-11-03T16:53:06;95783.59;;;15.41;44.75
44079;BME280;29744;49.078;12.878;2022-11-03T16:58:06;95794.84;;;15.43;44.80
44079;BME280;29744;49.078;12.878;2022-11-03T17:03:06;95793.28;;;15.42;44.41
44079;BME280;29744;49.078;12.878;2022-11-03T17:08:07;95776.28;;;15.41;44.56
44079;BME280;29744;49.078;12.878;2022-11-03T17:13:07;95764.69;;;15.41;44.55
44079;BME280;29744;49.078;12.878;2022-11-03T17:18:07;95760.41;;;15.40;44.66
44079;BME280;29744;49.078;12.878;2022-11-03T17:23:08;95757.72;;;15.40;44.93
44079;BME280;29744;49.078;12.878;2022-11-03T17:28:08;95753.53;;;15.42;44.47
44079;BME280;29744;49.078;12.878;2022-11-03T17:33:14;95745.88;;;15.44;44.89
44079;BME280;29744;49.078;12.878;2022-11-03T17:38:16;95736.63;;;15.45;44.47
44079;BME280;29744;49.078;12.878;2022-11-03T17:43:22;95728.53;;;15.45;45.09
44079;BME280;29744;49.078;12.878;2022-11-03T17:48:23;95714.22;;;15.45;44.72
44079;BME280;29744;49.078;12.878;2022-11-03T17:53:26;95706.91;;;15.45;44.74
44079;BME280;29744;49.078;12.878;2022-11-03T17:58:33;95704.22;;;15.45;44.45
44079;BME280;29744;49.078;12.878;2022-11-03T18:03:35;95701.16;;;15.47;44.72
44079;BME280;29744;49.078;12.878;2022-11-03T18:08:35;95684.59;;;15.49;44.95
44079;BME280;29744;49.078;12.878;2022-11-03T18:13:36;95665.34;;;15.50;44.47
44079;BME280;29744;49.078;12.878;2022-11-03T18:18:41;95655.66;;;15.49;44.24
44079;BME280;29744;49.078;12.878;2022-11-03T18:23:42;95640.22;;;15.50;44.79
44079;BME280;29744;49.078;12.878;2022-11-03T18:28:42;95634.03;;;15.49;44.29
44079;BME280;29744;49.078;12.878;2022-11-03T18:33:43;95627.84;;;15.49;44.70
44079;BME280;29744;49.078;12.878;2022-11-03T18:38:44;95600.06;;;15.48;44.33
44079;BME280;29744;49.078;12.878;2022-11-03T18:43:44;95599.25;;;15.48;44.66
44079;BME280;29744;49.078;12.878;2022-11-03T18:48:44;95581.13;;;15.48;44.74
44079;BME280;29744;49.078;12.878;2022-11-03T18:53:45;95576.09;;;15.46;44.53
44079;BME280;29744;49.078;12.878;2022-11-03T18:58:46;95568.31;;;15.45;44.45
44079;BME280;29744;49.078;12.878;2022-11-03T19:03:47;95551.69;;;15.43;44.64
44079;BME280;29744;49.078;12.878;2022-11-03T19:08:55;95551.31;;;15.44;44.66
44079;BME280;29744;49.078;12.878;2022-11-03T19:13:56;95541.66;;;15.43;44.70
44079;BME280;29744;49.078;12.878;2022-11-03T19:18:56;95531.97;;;15.42;44.63
44079;BME280;29744;49.078;12.878;2022-11-03T19:23:57;95519.59;;;15.41;44.44
44079;BME280;29744;49.078;12.878;2022-11-03T19:29:01;95518.47;;;15.42;44.54
44079;BME280;29744;49.078;12.878;2022-11-03T19:34:06;95508.81;;;15.41;44.61
44079;BME280;29744;49.078;12.878;2022-11-03T19:39:13;95499.91;;;15.41;44.79
44079;BME280;29744;49.078;12.878;2022-11-03T19:44:18;95494.50;;;15.41;44.68
44079;BME280;29744;49.078;12.878;2022-11-03T19:49:18;95498.34;;;15.40;44.48
44079;BME280;29744;49.078;12.878;2022-11-03T19:54:20;95490.25;;;15.40;44.31
44079;BME280;29744;49.078;12.878;2022-11-03T19:59:21;95482.91;;;15.40;44.38
44079;BME280;29744;49.078;12.878;2022-11-03T20:04:21;95479.78;;;15.38;44.88
44079;BME280;29744;49.078;12.878;2022-11-03T20:09:23;95478.66;;;15.39;44.66
44079;BME280;29744;49.078;12.878;2022-11-03T20:14:25;95463.22;;;15.40;44.71
44079;BME280;29744;49.078;12.878;2022-11-03T20:19:26;95450.06;;;15.38;44.66
44079;BME280;29744;49.078;12.878;2022-11-03T20:24:26;95441.97;;;15.38;44.78
44079;BME280;29744;49.078;12.878;2022-11-03T20:29:27;95436.56;;;15.38;44.39
44079;BME280;29744;49.078;12.878;2022-11-03T20:34:28;95423.84;;;15.39;44.36
44079;BME280;29744;49.078;12.878;2022-11-03T20:39:28;95418.44;;;15.39;44.51
44079;BME280;29744;49.078;12.878;2022-11-03T20:44:28;95410.31;;;15.39;44.52
44079;BME280;29744;49.078;12.878;2022-11-03T20:49:29;95399.88;;;15.37;44.68
44079;BME280;29744;49.078;12.878;2022-11-03T20:54:29;95393.34;;;15.38;44.78
44079;BME280;29744;49.078;12.878;2022-11-03T20:59:29;95381.75;;;15.38;44.45
44079;BME280;29744;49.078;12.878;2022-11-03T21:04:30;95382.53;;;15.38;44.92
44079;BME280;29744;49.078;12.878;2022-11-03T21:09:30;95380.97;;;15.37;44.47
44079;BME280;29744;49.078;12.878;2022-11-03T21:14:30;95370.16;;;15.37;44.66
44079;BME280;29744;49.078;12.878;2022-11-03T21:19:32;95371.28;;;15.36;44.37
44079;BME280;29744;49.078;12.878;2022-11-03T21:24:51;95367.47;;;15.37;44.77
44079;BME280;29744;49.078;12.878;2022-11-03T21:29:51;95355.09;;;15.36;44.44
44079;BME280;29744;49.078;12.878;2022-11-03T21:34:51;95352.38;;;15.36;44.39
44079;BME280;29744;49.078;12.878;2022-11-03T21:39:52;95341.59;;;15.36;44.53
44079;BME280;29744;49.078;12.878;2022-11-03T21:44:52;95338.09;;;15.36;44.61
44079;BME280;29744;49.078;12.878;2022-11-03T21:49:52;95331.56;;;15.37;44.77
44079;BME280;29744;49.078;12.878;2022-11-03T21:54:52;95330.78;;;15.36;44.74
44079;BME280;29744;49.078;12.878;2022-11-03T21:59:53;95333.47;;;15.36;44.91
44079;BME280;29744;49.078;12.878;2022-11-03T22:04:57;95309.94;;;15.37;44.66
44079;BME280;29744;49.078;12.878;2022-11-03T22:09:58;95301.84;;;15.37;44.37
44079;BME280;29744;49.078;12.878;2022-11-03T22:14:58;95293.75;;;15.37;44.84
44079;BME280;29744;49.078;12.878;2022-11-03T22:20:17;95286.41;;;15.37;44.91
44079;BME280;29744;49.078;12.878;2022-11-03T22:25:36;95266.72;;;15.37;44.84
44079;BME280;29744;49.078;12.878;2022-11-03T22:30:55;95272.91;;;15.37;44.57
44079;BME280;29744;49.078;12.878;2022-11-03T22:36:13;95259.41;;;15.37;44.73
44079;BME280;29744;49.078;12.878;2022-11-03T22:41:23;95243.97;;;15.38;44.77
44079;BME280;29744;49.078;12.878;2022-11-03T22:46:41;95247.47;;;15.38;44.65
44079;BME280;29744;49.078;12.878;2022-11-03T22:51:42;95252.84;;;15.38;45.05
44079;BME280;29744;49.078;12.878;2022-11-03T22:56:42;95249.03;;;15.39;44.69
44079;BME280;29744;49.078;12.878;2022-11-03T23:01:42;95237.44;;;15.39;44.93
44079;BME280;29744;49.078;12.878;2022-11-03T23:06:43;95222.28;;;15.34;44.49
44079;BME280;29744;49.078;12.878;2022-11-03T23:11:43;95230.09;;;15.39;44.80
44079;BME280;29744;49.078;12.878;2022-11-03T23:16:43;95235.50;;;15.39;44.51
44079;BME280;29744;49.078;12.878;2022-11-03T23:21:45;95237.06;;;15.40;44.56
44079;BME280;29744;49.078;12.878;2022-11-03T23:26:46;95234.38;;;15.40;44.64
44079;BME280;29744;49.078;12.878;2022-11-03T23:31:47;95234.38;;;15.40;44.75
44079;BME280;29744;49.078;12.878;2022-11-03T23:36:47;95235.50;;;15.39;44.62
44079;BME280;29744;49.078;12.878;2022-11-03T23:41:48;95232.81;;;15.39;44.14
44079;BME280;29744;49.078;12.878;2022-11-03T23:46:49;95230.09;;;15.39;44.56
44079;BME280;29744;49.078;12.878;2022-11-03T23:52:08;95230.09;;;15.39;44.56
44079;BME280;29744;49.078;12.878;2022-11-03T23:57:08;95222.78;;;15.40;44.69
